sensor_id;sensor_type;location;lat;lon;timestamp;P1;durP1;ratioP1;P2;durP2;ratioP2
35777;SDS011;21899;42.662;23.316;2023-09-08T00:00:46;12.35;;;9.50;;
35777;SDS011;21899;42.662;23.316;2023-09-08T00:03:12;13.50;;;9.48;;
35777;SDS011;21899;42.662;23.316;2023-09-08T00:05:38;13.05;;;9.25;;
35777;SDS011;21899;42.662;23.316;2023-09-08T00:08:03;14.05;;;9.68;;
35777;SDS011;21899;42.662;23.316;2023-09-08T00:10:29;13.32;;;10.07;;
35777;SDS011;21899;42.662;23.316;2023-09-08T00:12:54;14.07;;;10.07;;
35777;SDS011;21899;42.662;23.316;2023-09-08T00:15:20;14.40;;;9.55;;
35777;SDS011;21899;42.662;23.316;2023-09-08T00:17:45;14.95;;;9.02;;
35777;SDS011;21899;42.662;23.316;2023-09-08T00:20:12;12.15;;;7.85;;
35777;SDS011;21899;42.662;23.316;2023-09-08T00:22:38;11.13;;;7.38;;
35777;SDS011;21899;42.662;23.316;2023-09-08T00:25:04;13.25;;;7.53;;
35777;SDS011;21899;42.662;23.316;2023-09-08T00:27:30;9.48;;;7.15;;
35777;SDS011;21899;42.662;23.316;2023-09-08T00:29:56;10.48;;;7.30;;
35777;SDS011;21899;42.662;23.316;2023-09-08T00:32:22;9.63;;;7.30;;
35777;SDS011;21899;42.662;23.316;2023-09-08T00:34:47;11.77;;;6.60;;
35777;SDS011;21899;42.662;23.316;2023-09-08T00:37:13;8.77;;;6.38;;
35777;SDS011;21899;42.662;23.316;2023-09-08T00:39:38;11.23;;;6.85;;
35777;SDS011;21899;42.662;23.316;2023-09-08T00:42:04;9.95;;;6.35;;
35777;SDS011;21899;42.662;23.316;2023-09-08T00:44:30;9.68;;;6.43;;
35777;SDS011;21899;42.662;23.316;2023-09-08T00:46:55;9.60;;;6.38;;
35777;SDS011;21899;42.662;23.316;2023-09-08T00:49:21;10.57;;;6.53;;
35777;SDS011;21899;42.662;23.316;2023-09-08T00:51:47;9.30;;;5.85;;
35777;SDS011;21899;42.662;23.316;2023-09-08T00:54:13;10.88;;;6.25;;
35777;SDS011;21899;42.662;23.316;2023-09-08T00:56:39;8.95;;;6.05;;
35777;SDS011;21899;42.662;23.316;2023-09-08T00:59:05;14.85;;;6.35;;
35777;SDS011;21899;42.662;23.316;2023-09-08T01:01:32;10.82;;;6.00;;
35777;SDS011;21899;42.662;23.316;2023-09-08T01:03:59;11.25;;;5.47;;
35777;SDS011;21899;42.662;23.316;2023-09-08T01:06:25;9.48;;;6.55;;
35777;SDS011;21899;42.662;23.316;2023-09-08T01:08:52;10.57;;;6.57;;
35777;SDS011;21899;42.662;23.316;2023-09-08T01:11:19;7.88;;;5.13;;
35777;SDS011;21899;42.662;23.316;2023-09-08T01:13:45;10.95;;;5.50;;
35777;SDS011;21899;42.662;23.316;2023-09-08T01:16:10;12.48;;;5.43;;
35777;SDS011;21899;42.662;23.316;2023-09-08T01:18:35;7.78;;;5.10;;
35777;SDS011;21899;42.662;23.316;2023-09-08T01:23:40;9.45;;;5.90;;
35777;SDS011;21899;42.662;23.316;2023-09-08T01:26:29;7.35;;;4.63;;
35777;SDS011;21899;42.662;23.316;2023-09-08T01:29:01;7.53;;;5.53;;
35777;SDS011;21899;42.662;23.316;2023-09-08T01:31:28;7.13;;;5.10;;
35777;SDS011;21899;42.662;23.316;2023-09-08T01:33:54;6.60;;;4.88;;
35777;SDS011;21899;42.662;23.316;2023-09-08T01:36:20;8.90;;;5.50;;
35777;SDS011;21899;42.662;23.316;2023-09-08T01:38:45;8.77;;;5.22;;
35777;SDS011;21899;42.662;23.316;2023-09-08T01:41:11;6.82;;;4.72;;
35777;SDS011;21899;42.662;23.316;2023-09-08T01:43:36;8.25;;;4.90;;
35777;SDS011;21899;42.662;23.316;2023-09-08T01:46:02;8.02;;;5.05;;
35777;SDS011;21899;42.662;23.316;2023-09-08T01:48:27;7.95;;;5.30;;
35777;SDS011;21899;42.662;23.316;2023-09-08T01:50:52;10.93;;;5.40;;
35777;SDS011;21899;42.662;23.316;2023-09-08T01:53:18;8.63;;;5.60;;
35777;SDS011;21899;42.662;23.316;2023-09-08T01:55:43;11.52;;;5.35;;
35777;SDS011;21899;42.662;23.316;2023-09-08T01:58:09;7.93;;;5.05;;
35777;SDS011;21899;42.662;23.316;2023-09-08T02:00:34;8.25;;;5.18;;
35777;SDS011;21899;42.662;23.316;2023-09-08T02:02:59;8.65;;;5.60;;
35777;SDS011;21899;42.662;23.316;2023-09-08T02:05:25;13.02;;;6.20;;
35777;SDS011;21899;42.662;23.316;2023-09-08T02:07:51;7.55;;;5.55;;
35777;SDS011;21899;42.662;23.316;2023-09-08T02:10:17;11.77;;;5.60;;
35777;SDS011;21899;42.662;23.316;2023-09-08T02:12:43;9.27;;;6.07;;
35777;SDS011;21899;42.662;23.316;2023-09-08T02:15:08;8.13;;;5.60;;
35777;SDS011;21899;42.662;23.316;2023-09-08T02:17:36;9.27;;;5.80;;
35777;SDS011;21899;42.662;23.316;2023-09-08T02:20:01;9.85;;;5.75;;
35777;SDS011;21899;42.662;23.316;2023-09-08T02:22:28;12.48;;;6.70;;
35777;SDS011;21899;42.662;23.316;2023-09-08T02:24:53;11.93;;;6.35;;
35777;SDS011;21899;42.662;23.316;2023-09-08T02:27:19;9.60;;;6.30;;
35777;SDS011;21899;42.662;23.316;2023-09-08T02:29:44;8.07;;;6.03;;
35777;SDS011;21899;42.662;23.316;2023-09-08T02:32:09;10.82;;;6.40;;
35777;SDS011;21899;42.662;23.316;2023-09-08T02:34:35;10.50;;;6.18;;
35777;SDS011;21899;42.662;23.316;2023-09-08T02:37:04;11.73;;;6.78;;
35777;SDS011;21899;42.662;23.316;2023-09-08T02:39:29;10.15;;;6.90;;
35777;SDS011;21899;42.662;23.316;2023-09-08T02:47:04;9.70;;;7.03;;
35777;SDS011;21899;42.662;23.316;2023-09-08T02:49:31;9.65;;;6.82;;
35777;SDS011;21899;42.662;23.316;2023-09-08T02:51:56;13.13;;;6.97;;
35777;SDS011;21899;42.662;23.316;2023-09-08T02:54:22;11.65;;;7.03;;
35777;SDS011;21899;42.662;23.316;2023-09-08T02:56:47;16.85;;;7.82;;
35777;SDS011;21899;42.662;23.316;2023-09-08T02:59:13;14.25;;;8.18;;
35777;SDS011;21899;42.662;23.316;2023-09-08T03:01:38;11.13;;;7.68;;
35777;SDS011;21899;42.662;23.316;2023-09-08T03:04:03;11.18;;;7.82;;
35777;SDS011;21899;42.662;23.316;2023-09-08T03:06:29;12.65;;;8.75;;
35777;SDS011;21899;42.662;23.316;2023-09-08T03:08:54;16.90;;;9.10;;
35777;SDS011;21899;42.662;23.316;2023-09-08T03:11:19;15.38;;;8.02;;
35777;SDS011;21899;42.662;23.316;2023-09-08T03:13:45;12.02;;;8.32;;
35777;SDS011;21899;42.662;23.316;2023-09-08T03:16:10;11.63;;;8.75;;
35777;SDS011;21899;42.662;23.316;2023-09-08T03:18:36;14.65;;;8.05;;
35777;SDS011;21899;42.662;23.316;2023-09-08T03:21:03;14.75;;;8.38;;
35777;SDS011;21899;42.662;23.316;2023-09-08T03:23:37;13.10;;;8.65;;
35777;SDS011;21899;42.662;23.316;2023-09-08T03:26:04;15.88;;;8.70;;
35777;SDS011;21899;42.662;23.316;2023-09-08T03:28:30;13.77;;;9.13;;
35777;SDS011;21899;42.662;23.316;2023-09-08T03:30:56;13.27;;;9.15;;
35777;SDS011;21899;42.662;23.316;2023-09-08T03:33:21;12.70;;;8.77;;
35777;SDS011;21899;42.662;23.316;2023-09-08T03:35:47;12.45;;;9.55;;
35777;SDS011;21899;42.662;23.316;2023-09-08T03:38:12;14.57;;;9.05;;
35777;SDS011;21899;42.662;23.316;2023-09-08T03:40:37;14.13;;;10.00;;
35777;SDS011;21899;42.662;23.316;2023-09-08T03:43:03;13.48;;;9.73;;
35777;SDS011;21899;42.662;23.316;2023-09-08T03:45:29;12.50;;;9.95;;
35777;SDS011;21899;42.662;23.316;2023-09-08T03:47:54;15.93;;;10.18;;
35777;SDS011;21899;42.662;23.316;2023-09-08T03:50:20;18.20;;;10.25;;
35777;SDS011;21899;42.662;23.316;2023-09-08T03:52:45;13.95;;;9.50;;
35777;SDS011;21899;42.662;23.316;2023-09-08T03:55:11;16.30;;;10.02;;
35777;SDS011;21899;42.662;23.316;2023-09-08T03:57:36;17.88;;;9.90;;
35777;SDS011;21899;42.662;23.316;2023-09-08T04:00:02;16.73;;;10.35;;
35777;SDS011;21899;42.662;23.316;2023-09-08T04:02:29;13.98;;;9.68;;
35777;SDS011;21899;42.662;23.316;2023-09-08T04:04:55;14.18;;;10.63;;
35777;SDS011;21899;42.662;23.316;2023-09-08T04:07:20;15.05;;;9.55;;
35777;SDS011;21899;42.662;23.316;2023-09-08T04:09:45;13.82;;;9.68;;
35777;SDS011;21899;42.662;23.316;2023-09-08T04:12:11;13.18;;;9.35;;
35777;SDS011;21899;42.662;23.316;2023-09-08T04:14:36;20.15;;;9.50;;
35777;SDS011;21899;42.662;23.316;2023-09-08T04:17:02;18.95;;;10.55;;
35777;SDS011;21899;42.662;23.316;2023-09-08T04:19:27;12.95;;;9.25;;
35777;SDS011;21899;42.662;23.316;2023-09-08T04:21:53;14.07;;;8.80;;
35777;SDS011;21899;42.662;23.316;2023-09-08T04:24:18;15.52;;;9.25;;
35777;SDS011;21899;42.662;23.316;2023-09-08T04:26:45;15.85;;;10.02;;
35777;SDS011;21899;42.662;23.316;2023-09-08T04:29:10;13.23;;;9.55;;
35777;SDS011;21899;42.662;23.316;2023-09-08T04:31:36;19.83;;;10.52;;
35777;SDS011;21899;42.662;23.316;2023-09-08T04:34:01;14.10;;;9.38;;
35777;SDS011;21899;42.662;23.316;2023-09-08T04:36:26;16.20;;;9.63;;
35777;SDS011;21899;42.662;23.316;2023-09-08T04:38:52;15.18;;;9.85;;
35777;SDS011;21899;42.662;23.316;2023-09-08T04:41:17;14.70;;;9.80;;
35777;SDS011;21899;42.662;23.316;2023-09-08T04:43:42;18.85;;;10.05;;
35777;SDS011;21899;42.662;23.316;2023-09-08T04:46:08;12.57;;;8.85;;
35777;SDS011;21899;42.662;23.316;2023-09-08T04:48:33;16.63;;;9.00;;
35777;SDS011;21899;42.662;23.316;2023-09-08T04:50:59;13.90;;;9.00;;
35777;SDS011;21899;42.662;23.316;2023-09-08T04:53:25;14.65;;;9.38;;
35777;SDS011;21899;42.662;23.316;2023-09-08T04:55:50;14.27;;;8.35;;
35777;SDS011;21899;42.662;23.316;2023-09-08T04:58:16;15.63;;;8.07;;
35777;SDS011;21899;42.662;23.316;2023-09-08T05:00:41;13.43;;;9.48;;
35777;SDS011;21899;42.662;23.316;2023-09-08T05:03:06;13.20;;;8.60;;
35777;SDS011;21899;42.662;23.316;2023-09-08T05:05:32;16.10;;;8.65;;
35777;SDS011;21899;42.662;23.316;2023-09-08T05:07:57;15.10;;;8.52;;
35777;SDS011;21899;42.662;23.316;2023-09-08T05:10:23;13.13;;;8.02;;
35777;SDS011;21899;42.662;23.316;2023-09-08T05:12:49;15.82;;;8.38;;
35777;SDS011;21899;42.662;23.316;2023-09-08T05:15:14;15.98;;;7.95;;
35777;SDS011;21899;42.662;23.316;2023-09-08T05:17:41;12.68;;;8.05;;
35777;SDS011;21899;42.662;23.316;2023-09-08T05:20:07;14.15;;;7.90;;
35777;SDS011;21899;42.662;23.316;2023-09-08T05:22:33;14.82;;;7.72;;
35777;SDS011;21899;42.662;23.316;2023-09-08T05:24:59;19.83;;;7.70;;
35777;SDS011;21899;42.662;23.316;2023-09-08T05:27:24;18.02;;;7.88;;
35777;SDS011;21899;42.662;23.316;2023-09-08T05:29:49;14.88;;;7.25;;
35777;SDS011;21899;42.662;23.316;2023-09-08T05:32:15;14.57;;;7.60;;
35777;SDS011;21899;42.662;23.316;2023-09-08T05:34:40;14.43;;;6.88;;
35777;SDS011;21899;42.662;23.316;2023-09-08T05:37:06;12.02;;;6.68;;
35777;SDS011;21899;42.662;23.316;2023-09-08T05:39:31;13.65;;;6.32;;
35777;SDS011;21899;42.662;23.316;2023-09-08T05:41:56;12.27;;;6.85;;
35777;SDS011;21899;42.662;23.316;2023-09-08T05:44:22;18.38;;;7.82;;
35777;SDS011;21899;42.662;23.316;2023-09-08T05:46:47;13.73;;;7.18;;
35777;SDS011;21899;42.662;23.316;2023-09-08T05:49:12;13.90;;;6.15;;
35777;SDS011;21899;42.662;23.316;2023-09-08T05:51:39;12.43;;;6.63;;
35777;SDS011;21899;42.662;23.316;2023-09-08T05:54:04;14.00;;;5.82;;
35777;SDS011;21899;42.662;23.316;2023-09-08T05:56:30;15.70;;;5.88;;
35777;SDS011;21899;42.662;23.316;2023-09-08T05:58:57;11.32;;;5.30;;
35777;SDS011;21899;42.662;23.316;2023-09-08T06:01:23;11.63;;;5.60;;
35777;SDS011;21899;42.662;23.316;2023-09-08T06:03:49;8.27;;;5.05;;
35777;SDS011;21899;42.662;23.316;2023-09-08T06:06:14;13.07;;;5.10;;
35777;SDS011;21899;42.662;23.316;2023-09-08T06:08:40;11.90;;;5.60;;
35777;SDS011;21899;42.662;23.316;2023-09-08T06:11:05;11.50;;;5.80;;
35777;SDS011;21899;42.662;23.316;2023-09-08T06:13:30;10.23;;;5.75;;
35777;SDS011;21899;42.662;23.316;2023-09-08T06:15:56;7.78;;;4.72;;
35777;SDS011;21899;42.662;23.316;2023-09-08T06:18:21;13.07;;;5.68;;
35777;SDS011;21899;42.662;23.316;2023-09-08T06:20:47;12.38;;;5.20;;
35777;SDS011;21899;42.662;23.316;2023-09-08T06:23:13;15.60;;;5.72;;
35777;SDS011;21899;42.662;23.316;2023-09-08T06:25:38;9.43;;;4.75;;
35777;SDS011;21899;42.662;23.316;2023-09-08T06:28:04;9.45;;;4.70;;
35777;SDS011;21899;42.662;23.316;2023-09-08T06:30:29;9.13;;;5.18;;
35777;SDS011;21899;42.662;23.316;2023-09-08T06:32:55;17.77;;;4.63;;
35777;SDS011;21899;42.662;23.316;2023-09-08T06:35:21;10.23;;;4.25;;
35777;SDS011;21899;42.662;23.316;2023-09-08T06:37:46;9.80;;;4.60;;
35777;SDS011;21899;42.662;23.316;2023-09-08T06:40:11;11.32;;;4.75;;
35777;SDS011;21899;42.662;23.316;2023-09-08T06:42:37;8.95;;;4.45;;
35777;SDS011;21899;42.662;23.316;2023-09-08T06:45:02;7.90;;;4.18;;
35777;SDS011;21899;42.662;23.316;2023-09-08T06:47:28;10.27;;;4.40;;
35777;SDS011;21899;42.662;23.316;2023-09-08T06:49:53;6.70;;;3.85;;
35777;SDS011;21899;42.662;23.316;2023-09-08T06:52:19;6.25;;;3.70;;
35777;SDS011;21899;42.662;23.316;2023-09-08T06:54:44;7.43;;;3.97;;
35777;SDS011;21899;42.662;23.316;2023-09-08T06:57:12;8.30;;;3.83;;
35777;SDS011;21899;42.662;23.316;2023-09-08T06:59:38;11.38;;;3.90;;
35777;SDS011;21899;42.662;23.316;2023-09-08T07:02:04;5.63;;;3.42;;
35777;SDS011;21899;42.662;23.316;2023-09-08T07:04:29;4.43;;;3.60;;
35777;SDS011;21899;42.662;23.316;2023-09-08T07:06:55;5.55;;;3.13;;
35777;SDS011;21899;42.662;23.316;2023-09-08T07:09:21;7.30;;;4.10;;
35777;SDS011;21899;42.662;23.316;2023-09-08T07:11:46;5.15;;;3.30;;
35777;SDS011;21899;42.662;23.316;2023-09-08T07:14:12;10.00;;;3.65;;
35777;SDS011;21899;42.662;23.316;2023-09-08T07:16:37;9.80;;;4.10;;
35777;SDS011;21899;42.662;23.316;2023-09-08T07:19:03;7.57;;;3.75;;
35777;SDS011;21899;42.662;23.316;2023-09-08T07:21:28;8.50;;;4.20;;
35777;SDS011;21899;42.662;23.316;2023-09-08T07:23:53;9.80;;;3.85;;
35777;SDS011;21899;42.662;23.316;2023-09-08T07:26:19;6.80;;;3.63;;
35777;SDS011;21899;42.662;23.316;2023-09-08T07:28:45;6.63;;;3.65;;
35777;SDS011;21899;42.662;23.316;2023-09-08T07:31:10;6.15;;;3.60;;
35777;SDS011;21899;42.662;23.316;2023-09-08T07:33:36;6.20;;;3.70;;
35777;SDS011;21899;42.662;23.316;2023-09-08T07:36:03;6.75;;;3.72;;
35777;SDS011;21899;42.662;23.316;2023-09-08T07:38:32;8.18;;;3.50;;
35777;SDS011;21899;42.662;23.316;2023-09-08T07:40:58;8.55;;;4.00;;
35777;SDS011;21899;42.662;23.316;2023-09-08T07:43:25;5.28;;;3.50;;
35777;SDS011;21899;42.662;23.316;2023-09-08T07:45:51;5.65;;;3.60;;
35777;SDS011;21899;42.662;23.316;2023-09-08T07:48:16;5.05;;;3.17;;
35777;SDS011;21899;42.662;23.316;2023-09-08T07:50:42;5.82;;;3.72;;
35777;SDS011;21899;42.662;23.316;2023-09-08T07:53:07;6.72;;;3.58;;
35777;SDS011;21899;42.662;23.316;2023-09-08T07:55:33;7.03;;;4.10;;
35777;SDS011;21899;42.662;23.316;2023-09-08T07:57:58;8.63;;;5.00;;
35777;SDS011;21899;42.662;23.316;2023-09-08T08:00:26;9.13;;;4.30;;
35777;SDS011;21899;42.662;23.316;2023-09-08T08:02:53;7.35;;;4.35;;
35777;SDS011;21899;42.662;23.316;2023-09-08T08:05:20;7.35;;;4.25;;
35777;SDS011;21899;42.662;23.316;2023-09-08T08:07:46;5.88;;;4.07;;
35777;SDS011;21899;42.662;23.316;2023-09-08T08:10:11;5.72;;;4.05;;
35777;SDS011;21899;42.662;23.316;2023-09-08T08:12:38;6.80;;;3.90;;
35777;SDS011;21899;42.662;23.316;2023-09-08T08:15:06;11.35;;;5.03;;
35777;SDS011;21899;42.662;23.316;2023-09-08T08:17:35;6.05;;;4.20;;
35777;SDS011;21899;42.662;23.316;2023-09-08T08:20:01;8.57;;;4.13;;
35777;SDS011;21899;42.662;23.316;2023-09-08T08:22:42;6.35;;;3.70;;
35777;SDS011;21899;42.662;23.316;2023-09-08T08:25:07;7.18;;;4.07;;
35777;SDS011;21899;42.662;23.316;2023-09-08T08:27:33;8.98;;;3.70;;
35777;SDS011;21899;42.662;23.316;2023-09-08T08:29:59;9.82;;;3.75;;
35777;SDS011;21899;42.662;23.316;2023-09-08T08:32:26;12.68;;;5.40;;
35777;SDS011;21899;42.662;23.316;2023-09-08T08:34:52;6.40;;;3.72;;
35777;SDS011;21899;42.662;23.316;2023-09-08T08:37:17;10.85;;;4.30;;
35777;SDS011;21899;42.662;23.316;2023-09-08T08:39:43;6.60;;;3.90;;
35777;SDS011;21899;42.662;23.316;2023-09-08T08:42:12;7.50;;;3.83;;
35777;SDS011;21899;42.662;23.316;2023-09-08T08:44:38;8.75;;;3.33;;
35777;SDS011;21899;42.662;23.316;2023-09-08T08:47:06;8.45;;;3.83;;
35777;SDS011;21899;42.662;23.316;2023-09-08T08:49:32;7.00;;;3.53;;
35777;SDS011;21899;42.662;23.316;2023-09-08T08:51:59;7.82;;;3.70;;
35777;SDS011;21899;42.662;23.316;2023-09-08T08:54:25;6.30;;;3.55;;
35777;SDS011;21899;42.662;23.316;2023-09-08T08:56:51;8.45;;;4.00;;
35777;SDS011;21899;42.662;23.316;2023-09-08T08:59:16;6.15;;;3.60;;
35777;SDS011;21899;42.662;23.316;2023-09-08T09:01:43;8.32;;;4.00;;
35777;SDS011;21899;42.662;23.316;2023-09-08T09:04:10;4.82;;;3.30;;
35777;SDS011;21899;42.662;23.316;2023-09-08T09:06:36;6.70;;;3.60;;
35777;SDS011;21899;42.662;23.316;2023-09-08T09:09:01;10.13;;;4.25;;
35777;SDS011;21899;42.662;23.316;2023-09-08T09:11:30;9.63;;;3.47;;
35777;SDS011;21899;42.662;23.316;2023-09-08T09:13:56;10.60;;;3.70;;
35777;SDS011;21899;42.662;23.316;2023-09-08T09:16:23;7.93;;;3.40;;
35777;SDS011;21899;42.662;23.316;2023-09-08T09:18:55;6.32;;;3.35;;
35777;SDS011;21899;42.662;23.316;2023-09-08T09:21:22;8.35;;;3.85;;
35777;SDS011;21899;42.662;23.316;2023-09-08T09:23:48;6.18;;;3.67;;
35777;SDS011;21899;42.662;23.316;2023-09-08T09:26:22;10.65;;;4.07;;
35777;SDS011;21899;42.662;23.316;2023-09-08T09:28:49;7.85;;;4.28;;
35777;SDS011;21899;42.662;23.316;2023-09-08T09:31:17;7.72;;;3.63;;
35777;SDS011;21899;42.662;23.316;2023-09-08T09:33:43;9.35;;;3.80;;
35777;SDS011;21899;42.662;23.316;2023-09-08T09:36:08;8.10;;;4.03;;
35777;SDS011;21899;42.662;23.316;2023-09-08T09:38:34;7.20;;;3.92;;
35777;SDS011;21899;42.662;23.316;2023-09-08T09:41:00;6.93;;;4.10;;
35777;SDS011;21899;42.662;23.316;2023-09-08T09:43:25;8.35;;;3.95;;
35777;SDS011;21899;42.662;23.316;2023-09-08T09:45:53;5.22;;;3.85;;
35777;SDS011;21899;42.662;23.316;2023-09-08T09:48:19;5.95;;;3.85;;
35777;SDS011;21899;42.662;23.316;2023-09-08T09:50:45;5.28;;;3.90;;
35777;SDS011;21899;42.662;23.316;2023-09-08T09:53:13;6.80;;;4.43;;
35777;SDS011;21899;42.662;23.316;2023-09-08T09:55:41;8.07;;;4.25;;
35777;SDS011;21899;42.662;23.316;2023-09-08T09:58:10;5.28;;;3.47;;
35777;SDS011;21899;42.662;23.316;2023-09-08T10:00:37;8.25;;;3.42;;
35777;SDS011;21899;42.662;23.316;2023-09-08T10:03:06;7.45;;;3.65;;
35777;SDS011;21899;42.662;23.316;2023-09-08T10:05:32;6.80;;;3.75;;
35777;SDS011;21899;42.662;23.316;2023-09-08T10:07:59;9.05;;;4.47;;
35777;SDS011;21899;42.662;23.316;2023-09-08T10:10:26;6.15;;;4.10;;
35777;SDS011;21899;42.662;23.316;2023-09-08T10:12:54;7.45;;;3.80;;
35777;SDS011;21899;42.662;23.316;2023-09-08T10:15:23;10.40;;;3.75;;
35777;SDS011;21899;42.662;23.316;2023-09-08T10:17:55;7.10;;;3.90;;
35777;SDS011;21899;42.662;23.316;2023-09-08T10:20:25;7.72;;;3.38;;
35777;SDS011;21899;42.662;23.316;2023-09-08T10:23:00;5.13;;;3.80;;
35777;SDS011;21899;42.662;23.316;2023-09-08T10:25:32;9.30;;;4.07;;
35777;SDS011;21899;42.662;23.316;2023-09-08T10:28:00;9.23;;;3.60;;
35777;SDS011;21899;42.662;23.316;2023-09-08T10:30:27;7.57;;;3.78;;
35777;SDS011;21899;42.662;23.316;2023-09-08T10:32:53;6.35;;;3.83;;
35777;SDS011;21899;42.662;23.316;2023-09-08T10:35:20;5.55;;;3.42;;
35777;SDS011;21899;42.662;23.316;2023-09-08T10:37:45;7.50;;;4.20;;
35777;SDS011;21899;42.662;23.316;2023-09-08T10:40:20;6.97;;;4.20;;
35777;SDS011;21899;42.662;23.316;2023-09-08T10:43:07;4.63;;;3.33;;
35777;SDS011;21899;42.662;23.316;2023-09-08T10:45:36;5.57;;;3.40;;
35777;SDS011;21899;42.662;23.316;2023-09-08T10:48:01;5.32;;;3.50;;
35777;SDS011;21899;42.662;23.316;2023-09-08T10:50:30;7.35;;;4.10;;
35777;SDS011;21899;42.662;23.316;2023-09-08T10:53:16;6.43;;;3.83;;
35777;SDS011;21899;42.662;23.316;2023-09-08T10:55:44;4.50;;;3.13;;
35777;SDS011;21899;42.662;23.316;2023-09-08T11:00:58;6.55;;;3.50;;
35777;SDS011;21899;42.662;23.316;2023-09-08T11:06:03;5.53;;;3.25;;
35777;SDS011;21899;42.662;23.316;2023-09-08T11:08:30;11.88;;;3.60;;
35777;SDS011;21899;42.662;23.316;2023-09-08T11:10:56;5.85;;;3.40;;
35777;SDS011;21899;42.662;23.316;2023-09-08T11:13:21;6.05;;;3.30;;
35777;SDS011;21899;42.662;23.316;2023-09-08T11:15:47;5.05;;;3.47;;
35777;SDS011;21899;42.662;23.316;2023-09-08T11:18:15;6.10;;;3.70;;
35777;SDS011;21899;42.662;23.316;2023-09-08T11:20:41;14.25;;;4.38;;
35777;SDS011;21899;42.662;23.316;2023-09-08T11:23:06;7.28;;;3.78;;
35777;SDS011;21899;42.662;23.316;2023-09-08T11:25:32;7.65;;;3.63;;
35777;SDS011;21899;42.662;23.316;2023-09-08T11:27:58;5.75;;;3.53;;
35777;SDS011;21899;42.662;23.316;2023-09-08T11:30:24;7.40;;;4.38;;
35777;SDS011;21899;42.662;23.316;2023-09-08T11:32:50;4.97;;;3.47;;
35777;SDS011;21899;42.662;23.316;2023-09-08T11:35:16;5.88;;;3.90;;
35777;SDS011;21899;42.662;23.316;2023-09-08T11:37:41;6.65;;;3.42;;
35777;SDS011;21899;42.662;23.316;2023-09-08T11:40:08;6.05;;;4.15;;
35777;SDS011;21899;42.662;23.316;2023-09-08T11:42:37;6.30;;;3.58;;
35777;SDS011;21899;42.662;23.316;2023-09-08T11:45:09;11.43;;;4.13;;
35777;SDS011;21899;42.662;23.316;2023-09-08T11:47:46;5.80;;;3.83;;
35777;SDS011;21899;42.662;23.316;2023-09-08T11:50:14;9.55;;;3.58;;
35777;SDS011;21899;42.662;23.316;2023-09-08T11:52:43;7.65;;;4.03;;
35777;SDS011;21899;42.662;23.316;2023-09-08T11:55:10;7.30;;;3.78;;
35777;SDS011;21899;42.662;23.316;2023-09-08T11:57:37;6.05;;;3.67;;
35777;SDS011;21899;42.662;23.316;2023-09-08T12:00:05;6.80;;;3.67;;
35777;SDS011;21899;42.662;23.316;2023-09-08T12:02:37;8.15;;;3.83;;
35777;SDS011;21899;42.662;23.316;2023-09-08T12:05:03;12.20;;;3.70;;
35777;SDS011;21899;42.662;23.316;2023-09-08T12:07:29;8.02;;;4.25;;
35777;SDS011;21899;42.662;23.316;2023-09-08T12:09:54;6.00;;;3.95;;
35777;SDS011;21899;42.662;23.316;2023-09-08T12:12:20;6.63;;;3.90;;
35777;SDS011;21899;42.662;23.316;2023-09-08T12:14:46;4.88;;;3.75;;
35777;SDS011;21899;42.662;23.316;2023-09-08T12:17:11;6.32;;;4.18;;
35777;SDS011;21899;42.662;23.316;2023-09-08T12:19:40;6.82;;;3.95;;
35777;SDS011;21899;42.662;23.316;2023-09-08T12:22:06;7.60;;;3.85;;
35777;SDS011;21899;42.662;23.316;2023-09-08T12:27:14;6.55;;;4.18;;
35777;SDS011;21899;42.662;23.316;2023-09-08T12:29:41;12.77;;;4.00;;
35777;SDS011;21899;42.662;23.316;2023-09-08T12:32:29;6.55;;;4.03;;
35777;SDS011;21899;42.662;23.316;2023-09-08T12:34:56;8.93;;;3.67;;
35777;SDS011;21899;42.662;23.316;2023-09-08T12:37:23;8.90;;;4.65;;
35777;SDS011;21899;42.662;23.316;2023-09-08T12:39:52;7.93;;;3.90;;
35777;SDS011;21899;42.662;23.316;2023-09-08T12:42:17;6.80;;;3.92;;
35777;SDS011;21899;42.662;23.316;2023-09-08T12:44:43;8.80;;;3.70;;
35777;SDS011;21899;42.662;23.316;2023-09-08T12:47:09;8.05;;;4.47;;
35777;SDS011;21899;42.662;23.316;2023-09-08T12:49:37;6.13;;;3.80;;
35777;SDS011;21899;42.662;23.316;2023-09-08T12:52:03;6.65;;;3.05;;
35777;SDS011;21899;42.662;23.316;2023-09-08T12:54:28;10.20;;;4.15;;
35777;SDS011;21899;42.662;23.316;2023-09-08T12:56:54;9.15;;;3.90;;
35777;SDS011;21899;42.662;23.316;2023-09-08T12:59:19;5.97;;;3.92;;
35777;SDS011;21899;42.662;23.316;2023-09-08T13:01:44;9.05;;;3.90;;
35777;SDS011;21899;42.662;23.316;2023-09-08T13:04:10;9.73;;;4.20;;
35777;SDS011;21899;42.662;23.316;2023-09-08T13:06:35;7.30;;;3.72;;
35777;SDS011;21899;42.662;23.316;2023-09-08T13:09:00;10.27;;;4.50;;
35777;SDS011;21899;42.662;23.316;2023-09-08T13:11:26;9.70;;;4.55;;
35777;SDS011;21899;42.662;23.316;2023-09-08T13:13:51;11.27;;;4.07;;
35777;SDS011;21899;42.662;23.316;2023-09-08T13:16:17;6.75;;;3.70;;
35777;SDS011;21899;42.662;23.316;2023-09-08T13:18:42;4.85;;;3.65;;
35777;SDS011;21899;42.662;23.316;2023-09-08T13:21:10;7.05;;;3.72;;
35777;SDS011;21899;42.662;23.316;2023-09-08T13:23:35;7.63;;;4.05;;
35777;SDS011;21899;42.662;23.316;2023-09-08T13:26:01;6.25;;;3.50;;
35777;SDS011;21899;42.662;23.316;2023-09-08T13:28:26;7.25;;;3.72;;
35777;SDS011;21899;42.662;23.316;2023-09-08T13:30:52;10.10;;;4.32;;
35777;SDS011;21899;42.662;23.316;2023-09-08T13:33:17;8.25;;;3.80;;
35777;SDS011;21899;42.662;23.316;2023-09-08T13:35:42;6.13;;;4.18;;
35777;SDS011;21899;42.662;23.316;2023-09-08T13:38:08;7.68;;;3.92;;
35777;SDS011;21899;42.662;23.316;2023-09-08T13:40:33;7.95;;;3.85;;
35777;SDS011;21899;42.662;23.316;2023-09-08T13:42:59;6.38;;;3.70;;
35777;SDS011;21899;42.662;23.316;2023-09-08T13:45:25;10.25;;;4.03;;
35777;SDS011;21899;42.662;23.316;2023-09-08T13:47:50;6.97;;;3.90;;
35777;SDS011;21899;42.662;23.316;2023-09-08T13:50:16;10.68;;;4.28;;
35777;SDS011;21899;42.662;23.316;2023-09-08T13:52:41;5.72;;;4.13;;
35777;SDS011;21899;42.662;23.316;2023-09-08T13:55:08;8.55;;;3.83;;
35777;SDS011;21899;42.662;23.316;2023-09-08T13:57:35;9.45;;;4.32;;
35777;SDS011;21899;42.662;23.316;2023-09-08T14:00:01;7.15;;;3.58;;
35777;SDS011;21899;42.662;23.316;2023-09-08T14:02:27;6.15;;;3.78;;
35777;SDS011;21899;42.662;23.316;2023-09-08T14:04:52;6.50;;;4.00;;
35777;SDS011;21899;42.662;23.316;2023-09-08T14:07:17;5.57;;;3.55;;
35777;SDS011;21899;42.662;23.316;2023-09-08T14:09:43;6.72;;;3.70;;
35777;SDS011;21899;42.662;23.316;2023-09-08T14:12:08;10.13;;;4.03;;
35777;SDS011;21899;42.662;23.316;2023-09-08T14:14:34;7.63;;;3.53;;
35777;SDS011;21899;42.662;23.316;2023-09-08T14:16:59;8.27;;;4.07;;
35777;SDS011;21899;42.662;23.316;2023-09-08T14:19:24;6.95;;;3.97;;
35777;SDS011;21899;42.662;23.316;2023-09-08T14:21:50;5.90;;;3.88;;
35777;SDS011;21899;42.662;23.316;2023-09-08T14:24:15;5.72;;;3.88;;
35777;SDS011;21899;42.662;23.316;2023-09-08T14:26:40;7.45;;;4.25;;
35777;SDS011;21899;42.662;23.316;2023-09-08T14:29:06;5.53;;;3.80;;
35777;SDS011;21899;42.662;23.316;2023-09-08T14:31:31;7.07;;;4.15;;
35777;SDS011;21899;42.662;23.316;2023-09-08T14:33:57;8.48;;;4.05;;
35777;SDS011;21899;42.662;23.316;2023-09-08T14:36:22;9.80;;;4.13;;
35777;SDS011;21899;42.662;23.316;2023-09-08T14:38:47;5.75;;;3.97;;